Flight Track Log - Related Links

Times and Time Zones

All times are in EDT time to prevent confusion due to time zone crossing. See the N100PM flight status page for this flight to view local times or setup timezone preferences in your user account.


Time Position Orientation Groundspeed Altitude Reporting Facility
EDT Latitude Longitude Course Direction KTS MPH feet Rate Location/Type
Wed 02:44:15 PM 31.8008 -106.3956 211° Southwest 54 62 4,600  Level Albuquerque Center
Wed 02:44:33 PM 31.7953 -106.3994 211° Southwest 56 64 4,700 608 Climbing Albuquerque Center
Wed 02:45:34 PM 31.7744 -106.4022 186° South 66 76 5,400 571 Climbing Albuquerque Center
Wed 02:46:18 PM 31.7611 -106.4028 182° South 71 82 5,700 500 Climbing Albuquerque Center
Wed 02:46:34 PM 31.7553 -106.4019 173° South 73 84 5,900 492 Climbing Albuquerque Center
Wed 02:47:19 PM 31.7375 -106.4028 182° South 72 83 6,200 393 Climbing Albuquerque Center
Wed 02:47:35 PM 31.7358 -106.4019 157° South 70 81 6,300 290 Climbing Albuquerque Center
Wed 02:48:21 PM 31.7339 -106.4197 263° West 75 86 6,500 300 Climbing Albuquerque Center
Wed 02:48:35 PM 31.7378 -106.4239 318° Northwest 75 86 6,600 290 Climbing Albuquerque Center
Wed 02:49:23 PM 31.7408 -106.4439 280° West 77 89 6,800 269 Climbing Albuquerque Center
Wed 02:49:42 PM 31.7433 -106.4550 285° West 94 108 6,900 290 Climbing Albuquerque Center
Wed 02:50:25 PM 31.7475 -106.4683 290° West 78 90 7,100 218 Climbing Albuquerque Center
Wed 02:50:37 PM 31.7506 -106.4706 328° Northwest 89 102 7,100 -97 Level Albuquerque Center
Wed 02:51:27 PM 31.7556 -106.4933 284° West 80 92 7,000 91 Descending Albuquerque Center
Wed 02:51:43 PM 31.7647 -106.5019 321° Northwest 87 100 7,200 484 Climbing Albuquerque Center
Wed 02:52:29 PM 31.7742 -106.5142 312° West 85 98 7,500 492 Climbing Albuquerque Center
Wed 02:52:44 PM 31.7867 -106.5167 350° North 94 108 7,700 387 Climbing Albuquerque Center
Wed 02:53:31 PM 31.7983 -106.5344 308° West 87 100 7,900 197 Climbing Albuquerque Center
Wed 02:53:45 PM 31.7975 -106.5414 262° West 93 107 7,900 98 Level Albuquerque Center
Wed 02:54:32 PM 31.8067 -106.5572 304° West 81 93 8,000 200 Climbing Albuquerque Center
Wed 02:54:45 PM 31.8100 -106.5633 303° West 80 92 8,100 387 Climbing Albuquerque Center
Wed 02:55:34 PM 31.8292 -106.5739 335° Northwest 86 99 8,400 269 Climbing Albuquerque Center
Wed 02:55:52 PM 31.8339 -106.5775 327° Northwest 100 115 8,400 290 Level Albuquerque Center
Wed 02:56:36 PM 31.8558 -106.5867 340° North 94 108 8,700 393 Climbing Albuquerque Center
Wed 02:56:53 PM 31.8597 -106.5911 316° Northwest 102 117 8,800 387 Climbing Albuquerque Center
Wed 02:57:38 PM 31.8797 -106.6019 335° Northwest 97 112 9,100 400 Climbing Albuquerque Center
Wed 02:57:53 PM 31.8819 -106.6081 293° West 98 113 9,200 387 Climbing Albuquerque Center
Wed 02:58:40 PM 31.9033 -106.6172 340° North 97 112 9,500 393 Climbing Albuquerque Center
Wed 02:58:54 PM 31.9122 -106.6231 331° Northwest 98 113 9,600 484 Climbing Albuquerque Center
Wed 02:59:42 PM 31.9353 -106.6306 345° North 99 114 10,000 273 Climbing Albuquerque Center
Wed 03:00:44 PM 31.9608 -106.6436 337° Northwest 100 115 10,100 48 Climbing Albuquerque Center
Wed 03:01:46 PM 31.9886 -106.6603 333° Northwest 105 121 10,100 -49 Level Albuquerque Center
Wed 03:02:47 PM 32.0225 -106.6717 344° North 115 132 10,000 -49 Descending Albuquerque Center
Wed 03:03:49 PM 32.0522 -106.6844 340° North 117 135 10,000 48 Level Albuquerque Center
Wed 03:04:51 PM 32.0594 -106.7111 288° West 96 110 10,100 -48 Climbing Albuquerque Center
Wed 03:05:53 PM 32.0639 -106.7386 281° West 90 104 9,900  Descending Albuquerque Center
Wed 03:06:55 PM 32.0769 -106.7708 296° West 90 104 10,100 48 Climbing Albuquerque Center
Wed 03:07:57 PM 32.0847 -106.7972 289° West 87 100 10,000 -48 Descending Albuquerque Center
Wed 03:08:59 PM 32.0914 -106.8228 287° West 84 97 10,000 48 Level Albuquerque Center
Wed 03:10:01 PM 32.0956 -106.8469 282° West 80 92 10,100  Climbing Albuquerque Center
Wed 03:11:03 PM 32.1028 -106.8744 287° West 82 94 10,000 -97 Descending Albuquerque Center
Wed 03:12:05 PM 32.1100 -106.9019 287° West 86 99 9,900 48 Descending Albuquerque Center
Wed 03:13:07 PM 32.1194 -106.9317 291° West 84 97 10,100 97 Climbing Albuquerque Center
Wed 03:14:09 PM 32.1261 -106.9603 285° West 85 98 10,100  Level Albuquerque Center
Wed 03:15:11 PM 32.1336 -106.9931 285° West 94 108 10,100 -48 Level Albuquerque Center
Wed 03:16:13 PM 32.1414 -107.0239 287° West 98 113 10,000 -49 Descending Albuquerque Center
Wed 03:17:14 PM 32.1503 -107.0544 289° West 98 113 10,000 -49 Level Albuquerque Center
Wed 03:18:16 PM 32.1561 -107.0800 285° West 87 100 9,900  Descending Albuquerque Center
Wed 03:19:18 PM 32.1639 -107.1047 290° West 81 93 10,000 48 Climbing Albuquerque Center
Wed 03:20:20 PM 32.1703 -107.1372 283° West 84 97 10,000  Level Albuquerque Center
Wed 03:21:22 PM 32.1764 -107.1619 286° West 80 92 10,000  Level Albuquerque Center
Wed 03:22:24 PM 32.1822 -107.1883 285° West 81 93 10,000 48 Level Albuquerque Center
Wed 03:23:26 PM 32.1883 -107.2156 285° West 85 98 10,100  Climbing Albuquerque Center
Wed 03:24:28 PM 32.1944 -107.2431 285° West 86 99 10,000 -97 Descending Albuquerque Center
Wed 03:25:30 PM 32.2056 -107.2747 293° West 98 113 9,900 48 Descending Albuquerque Center
Wed 03:26:32 PM 32.2156 -107.3111 288° West 99 114 10,100 48 Climbing Albuquerque Center
Wed 03:27:34 PM 32.2206 -107.3358 283° West 84 97 10,000 48 Descending Albuquerque Center
Wed 03:28:36 PM 32.2258 -107.3644 282° West 86 99 10,200  Climbing Albuquerque Center
Wed 03:29:38 PM 32.2319 -107.3936 284° West 90 104 10,000 -97 Descending Albuquerque Center
Wed 03:30:40 PM 32.2397 -107.4219 288° West 90 104 10,000 -48 Level Albuquerque Center
Wed 03:31:42 PM 32.2453 -107.4461 285° West 80 92 9,900  Descending Albuquerque Center
Wed 03:32:43 PM 32.2539 -107.4731 291° West 84 97 10,000  Climbing Albuquerque Center
Wed 03:33:45 PM 32.2608 -107.5036 285° West 82 94 9,900 -48 Descending Albuquerque Center
Wed 03:34:47 PM 32.2647 -107.5300 280° West 80 92 9,900 -48 Level Albuquerque Center
Wed 03:35:49 PM 32.2675 -107.5572 277° West 82 94 9,800  Descending Albuquerque Center
Wed 03:36:51 PM 32.2703 -107.5828 277° West 80 92 9,900 145 Climbing Albuquerque Center
Wed 03:37:53 PM 32.2692 -107.6086 267° West 80 92 10,100 97 Climbing Albuquerque Center
Wed 03:38:55 PM 32.2658 -107.6367 262° West 82 94 10,100  Level Albuquerque Center
Wed 03:39:57 PM 32.2725 -107.6700 283° West 84 97 10,100 48 Level Albuquerque Center
Wed 03:40:59 PM 32.2764 -107.6958 280° West 84 97 10,200 -97 Climbing Albuquerque Center
Wed 03:42:01 PM 32.2736 -107.7203 262° West 80 92 9,900 -145 Descending Albuquerque Center
Wed 03:43:03 PM 32.2731 -107.7442 268° West 75 86 9,900 97 Level Albuquerque Center
Wed 03:44:05 PM 32.2753 -107.7683 276° West 74 85 10,100 48 Climbing Albuquerque Center
Wed 03:45:07 PM 32.2767 -107.7989 273° West 83 96 10,000  Descending Albuquerque Center
Wed 03:46:09 PM 32.2767 -107.8328 270° West 85 98 10,100  Climbing Albuquerque Center
Wed 03:47:11 PM 32.2753 -107.8606 267° West 85 98 10,000 -97 Descending Albuquerque Center
Wed 03:48:13 PM 32.2761 -107.8856 272° West 82 94 9,900  Descending Albuquerque Center
Wed 03:49:15 PM 32.2750 -107.9108 267° West 79 91 10,000  Climbing Albuquerque Center
Wed 03:50:17 PM 32.2758 -107.9331 273° West 74 85 9,900 -97 Descending Albuquerque Center
Wed 03:51:19 PM 32.2764 -107.9550 272° West 70 81 9,800 48 Descending Albuquerque Center
Wed 03:52:21 PM 32.2778 -107.9764 274° West 67 77 10,000 145 Climbing Albuquerque Center
Wed 03:53:23 PM 32.2775 -108.0031 269° West 67 77 10,100 97 Climbing Albuquerque Center
Wed 03:54:25 PM 32.2778 -108.0275 271° West 70 81 10,200  Climbing Albuquerque Center
Wed 03:55:26 PM 32.2781 -108.0525 271° West 74 85 10,100 -49 Descending Albuquerque Center
Wed 03:56:28 PM 32.2769 -108.0761 267° West 73 84 10,100  Level Albuquerque Center
Wed 03:57:30 PM 32.2753 -108.1031 266° West 77 89 10,100 -48 Level Albuquerque Center
Wed 03:58:32 PM 32.2753 -108.1297 270° West 80 92 10,000 -48 Descending Albuquerque Center
Wed 03:59:34 PM 32.2758 -108.1578 271° West 76 87 10,000 48 Level Albuquerque Center
Wed 04:00:36 PM 32.2758 -108.1825 270° West 74 85 10,100 48 Climbing Albuquerque Center
Wed 04:01:38 PM 32.2733 -108.2086 264° West 77 89 10,100  Level Albuquerque Center
Wed 04:02:40 PM 32.2725 -108.2372 268° West 82 94 10,100 -49 Level Albuquerque Center
Wed 04:03:41 PM 32.2722 -108.2658 269° West 85 98 10,000  Descending Albuquerque Center
Wed 04:04:43 PM 32.2728 -108.2958 271° West 88 101 10,100  Climbing Albuquerque Center
Wed 04:05:45 PM 32.2731 -108.3264 271° West 91 105 10,000  Descending Albuquerque Center
Wed 04:06:47 PM 32.2764 -108.3617 276° West 89 102 10,100 48 Climbing Albuquerque Center
Wed 04:07:49 PM 32.2769 -108.3931 271° West 93 107 10,100 -48 Level Albuquerque Center
Wed 04:08:51 PM 32.2797 -108.4244 276° West 96 110 10,000  Descending Albuquerque Center
Wed 04:09:52 PM 32.2792 -108.4558 269° West 94 108 10,100 49 Climbing Albuquerque Center
Wed 04:10:54 PM 32.2794 -108.4847 271° West 90 104 10,100 -48 Level Albuquerque Center
Wed 04:11:56 PM 32.2797 -108.5139 271° West 88 101 10,000  Descending Albuquerque Center
Wed 04:12:58 PM 32.2806 -108.5394 272° West 82 94 10,100 48 Climbing Albuquerque Center
Wed 04:14:00 PM 32.2775 -108.5683 263° West 75 86 10,100  Level Albuquerque Center
Wed 04:15:01 PM 32.2792 -108.5942 274° West 77 89 10,100  Level Albuquerque Center
Wed 04:16:03 PM 32.2772 -108.6211 265° West 81 93 10,100 145 Level Albuquerque Center
Wed 04:17:05 PM 32.2761 -108.6489 267° West 84 97 10,400 48 Climbing Albuquerque Center
Wed 04:18:07 PM 32.2778 -108.6811 274° West 95 109 10,200 -194 Descending Albuquerque Center
Wed 04:19:09 PM 32.2806 -108.7131 276° West 97 112 10,000 -97 Descending Albuquerque Center
Wed 04:20:11 PM 32.2825 -108.7400 275° West 87 100 10,000 49 Level Albuquerque Center
Wed 04:21:12 PM 32.2836 -108.7694 273° West 77 89 10,100 49 Climbing Albuquerque Center
Wed 04:22:14 PM 32.2850 -108.7919 274° West 70 81 10,100  Level Albuquerque Center
Wed 04:23:16 PM 32.2853 -108.8169 271° West 74 85 10,100  Level Albuquerque Center
Wed 04:24:18 PM 32.2844 -108.8417 268° West 75 86 10,100  Level Albuquerque Center
Wed 04:25:20 PM 32.2853 -108.8669 272° West 76 87 10,100  Level Albuquerque Center
Wed 04:26:22 PM 32.2858 -108.8939 271° West 80 92 10,100 -49 Level Albuquerque Center
Wed 04:27:23 PM 32.2867 -108.9272 272° West 84 97 10,000 -98 Descending Albuquerque Center
Wed 04:28:25 PM 32.2881 -108.9494 274° West 72 83 9,900 48 Descending Albuquerque Center
Wed 04:29:27 PM 32.2856 -108.9736 263° West 72 83 10,100 97 Climbing Albuquerque Center
Wed 04:30:29 PM 32.2842 -108.9983 266° West 75 86 10,100 48 Level Albuquerque Center
Wed 04:31:31 PM 32.2836 -109.0231 268° West 75 86 10,200 48 Climbing Albuquerque Center
Wed 04:32:33 PM 32.2833 -109.0489 269° West 77 89 10,200  Level Albuquerque Center
Wed 04:33:35 PM 32.2822 -109.0767 267° West 82 94 10,200 -48 Level Albuquerque Center
Wed 04:34:37 PM 32.2817 -109.1086 269° West 81 93 10,100 -146 Descending Albuquerque Center
Wed 04:35:38 PM 32.2819 -109.1369 271° West 84 97 9,900 -49 Descending Albuquerque Center
Wed 04:36:40 PM 32.2828 -109.1622 272° West 80 92 10,000 145 Climbing Albuquerque Center
Wed 04:37:42 PM 32.2825 -109.1867 269° West 76 87 10,200 48 Climbing Albuquerque Center
Wed 04:38:44 PM 32.2814 -109.2125 267° West 77 89 10,100 -48 Descending Albuquerque Center
Wed 04:39:46 PM 32.2803 -109.2392 267° West 80 92 10,100 -97 Level Albuquerque Center
Wed 04:40:48 PM 32.2872 -109.2642 288° West 79 91 9,900  Descending Albuquerque Center
Wed 04:41:50 PM 32.2925 -109.2908 283° West 72 83 10,100 146 Climbing Albuquerque Center
Wed 04:42:51 PM 32.2972 -109.3169 282° West 78 90 10,200 49 Climbing Albuquerque Center
Wed 04:43:53 PM 32.3028 -109.3461 283° West 88 101 10,200 -48 Level Albuquerque Center
Wed 04:44:55 PM 32.3106 -109.3731 289° West 88 101 10,100 -97 Descending Albuquerque Center
Wed 04:45:57 PM 32.3161 -109.3967 286° West 78 90 10,000 48 Descending Albuquerque Center
Wed 04:46:59 PM 32.3225 -109.4219 287° West 79 91 10,200 48 Climbing Albuquerque Center
Wed 04:48:01 PM 32.3292 -109.4528 284° West 80 92 10,100  Descending Albuquerque Center
Wed 04:49:03 PM 32.3339 -109.4758 284° West 75 86 10,200 48 Climbing Albuquerque Center
Wed 04:50:05 PM 32.3411 -109.5014 289° West 77 89 10,200  Level Albuquerque Center
Wed 04:51:07 PM 32.3486 -109.5297 287° West 84 97 10,200 -48 Level Albuquerque Center
Wed 04:52:09 PM 32.3556 -109.5556 288° West 85 98 10,100 -48 Descending Albuquerque Center
Wed 04:53:11 PM 32.3619 -109.5808 287° West 83 96 10,100 48 Level Albuquerque Center
Wed 04:54:13 PM 32.3706 -109.6117 288° West 82 94 10,200 48 Climbing Albuquerque Center
Wed 04:55:15 PM 32.3764 -109.6381 285° West 83 96 10,200 -48 Level Albuquerque Center
Wed 04:56:17 PM 32.3819 -109.6667 283° West 85 98 10,100  Descending Albuquerque Center
Wed 04:57:19 PM 32.3908 -109.6947 291° West 88 101 10,200  Climbing Albuquerque Center
Wed 04:58:21 PM 32.3978 -109.7228 286° West 89 102 10,100 -48 Descending Albuquerque Center
Wed 04:59:23 PM 32.4064 -109.7481 292° West 86 99 10,100 48 Level Albuquerque Center
Wed 05:00:25 PM 32.4167 -109.7747 295° West 86 99 10,200 -97 Climbing Albuquerque Center
Wed 05:01:27 PM 32.4258 -109.8056 289° West 86 99 9,900 -145 Descending Albuquerque Center
Wed 05:02:29 PM 32.4308 -109.8311 283° West 84 97 9,900 48 Level Albuquerque Center
Wed 05:03:31 PM 32.4347 -109.8561 280° West 81 93 10,000 145 Climbing Albuquerque Center
Wed 05:04:33 PM 32.4358 -109.8828 273° West 81 93 10,200 48 Climbing Albuquerque Center
Wed 05:05:35 PM 32.4386 -109.9139 276° West 87 100 10,100 -97 Descending Albuquerque Center
Wed 05:06:37 PM 32.4456 -109.9436 285° West 90 104 10,000 48 Descending Albuquerque Center
Wed 05:07:39 PM 32.4478 -109.9744 275° West 86 99 10,200 -48 Climbing Albuquerque Center
Wed 05:08:41 PM 32.4447 -109.9992 262° West 82 94 9,900 -97 Descending Albuquerque Center
Wed 05:09:43 PM 32.4425 -110.0233 264° West 77 89 10,000 97 Climbing Albuquerque Center
Wed 05:10:45 PM 32.4419 -110.0481 268° West 75 86 10,100 194 Climbing Albuquerque Center
Wed 05:11:47 PM 32.4469 -110.0736 283° West 76 87 10,400 194 Climbing Albuquerque Center
Wed 05:12:49 PM 32.4558 -110.0997 292° West 79 91 10,500 48 Climbing Albuquerque Center
Wed 05:13:51 PM 32.4606 -110.1319 280° West 83 96 10,500 -48 Level Albuquerque Center
Wed 05:14:53 PM 32.4647 -110.1600 280° West 85 98 10,400 -97 Descending Albuquerque Center
Wed 05:15:55 PM 32.4694 -110.1875 282° West 85 98 10,300 -145 Descending Albuquerque Center
Wed 05:16:57 PM 32.4764 -110.2142 287° West 84 97 10,100 -97 Descending Albuquerque Center
Wed 05:17:59 PM 32.4844 -110.2389 291° West 84 97 10,100 32 Level Albuquerque Center
Wed 05:19:00 PM 32.4915 -110.2650 288° West  Level FlightAware Approximate
Wed 05:20:03 PM 32.5031 -110.2978 288° West 76 87 10,200  Level Albuquerque Center
Wed 05:21:05 PM 32.5083 -110.3289 281° West 93 107 10,100 48 Descending Albuquerque Center
Wed 05:22:07 PM 32.5131 -110.3594 280° West 93 107 10,300 97 Climbing Albuquerque Center
Wed 05:23:09 PM 32.5186 -110.3897 282° West 94 108 10,300 -48 Level Albuquerque Center
Wed 05:24:11 PM 32.5292 -110.4211 292° West 99 114 10,200 -145 Descending Albuquerque Center
Wed 05:25:13 PM 32.5381 -110.4503 290° West 98 113 10,000 -48 Descending Albuquerque Center
Wed 05:26:15 PM 32.5483 -110.4839 290° West 94 108 10,100 97 Climbing Albuquerque Center
Wed 05:27:17 PM 32.5547 -110.5142 284° West 93 107 10,200  Climbing Albuquerque Center
Wed 05:28:19 PM 32.5642 -110.5486 288° West 100 115 10,100 -48 Descending Albuquerque Center
Wed 05:29:21 PM 32.5722 -110.5825 286° West 104 120 10,100  Level Albuquerque Center
Wed 05:30:23 PM 32.5778 -110.6203 280° West 108 124 10,100 97 Level Albuquerque Center
Wed 05:31:25 PM 32.5856 -110.6589 283° West 105 121 10,300 48 Climbing Albuquerque Center
Wed 05:32:27 PM 32.5958 -110.6897 292° West 103 119 10,200 -97 Descending Albuquerque Center
Wed 05:33:29 PM 32.6039 -110.7197 288° West 100 115 10,100 -48 Descending Albuquerque Center
Wed 05:34:31 PM 32.6103 -110.7489 285° West 95 109 10,100 48 Level Albuquerque Center
Wed 05:35:34 PM 32.6161 -110.7750 285° West 87 100 10,200 48 Climbing Albuquerque Center
Wed 05:36:36 PM 32.6236 -110.8022 288° West 86 99 10,200  Level Albuquerque Center
Wed 05:37:38 PM 32.6356 -110.8386 291° West 93 107 10,200  Level Albuquerque Center
Wed 05:38:40 PM 32.6469 -110.8686 294° West 98 113 10,200 -97 Level Albuquerque Center
Wed 05:39:42 PM 32.6583 -110.8989 294° West 99 114 10,000 -97 Descending Albuquerque Center
Wed 05:40:44 PM 32.6661 -110.9286 287° West 96 110 10,000  Level Albuquerque Center
Wed 05:41:46 PM 32.6769 -110.9558 295° West 93 107 10,000  Level Albuquerque Center
Wed 05:42:48 PM 32.6836 -110.9883 284° West 96 110 10,000  Level Albuquerque Center
Wed 05:43:50 PM 32.6897 -111.0244 281° West 94 108 10,000 48 Level Albuquerque Center
Wed 05:44:52 PM 32.7000 -111.0536 293° West 94 108 10,100  Climbing Albuquerque Center
Wed 05:45:54 PM 32.7086 -111.0839 289° West 96 110 10,000 -97 Descending Albuquerque Center
Wed 05:46:56 PM 32.7158 -111.1161 285° West 98 113 9,900  Descending Albuquerque Center
Wed 05:47:58 PM 32.7211 -111.1508 280° West 101 116 10,000  Climbing Albuquerque Center
Wed 05:49:00 PM 32.7292 -111.1808 288° West 100 115 9,900 -48 Descending Albuquerque Center
Wed 05:50:02 PM 32.7461 -111.2131 302° West 98 113 9,900 -194 Level Albuquerque Center
Wed 05:51:04 PM 32.7611 -111.2428 301° West 101 116 9,500 -435 Descending Albuquerque Center
Wed 05:52:06 PM 32.7736 -111.2742 295° West 103 119 9,000 -484 Descending Albuquerque Center
Wed 05:53:08 PM 32.7864 -111.3050 296° West 103 119 8,500 -484 Descending Albuquerque Center
Wed 05:54:10 PM 32.7972 -111.3383 291° West 107 123 8,000 -290 Descending Albuquerque Center
Wed 05:55:12 PM 32.8061 -111.3694 289° West 100 115 7,900  Descending Albuquerque Center
Wed 05:56:14 PM 32.8183 -111.3986 297° West 100 115 8,000 48 Climbing Albuquerque Center
Wed 05:57:16 PM 32.8306 -111.4364 291° West 102 117 8,000  Level Albuquerque Center
Wed 05:58:18 PM 32.8392 -111.4672 288° West 94 108 8,000 -48 Level Albuquerque Center
Wed 05:59:20 PM 32.8558 -111.4828 322° Northwest 90 104 7,900 -290 Descending Albuquerque Center
Wed 06:00:22 PM 32.8864 -111.4767 10° North 107 123 7,400 -439 Descending Albuquerque Center
Wed 06:01:23 PM 32.9172 -111.4783 357° North 113 130 7,000 -195 Descending Albuquerque Center
Wed 06:02:25 PM 32.9542 -111.4772 North 109 125 7,000 -97 Level Albuquerque Center
Wed 06:03:27 PM 32.9831 -111.4775 360° North 106 122 6,800 -290 Descending Albuquerque Center
Wed 06:04:29 PM 33.0142 -111.4764 North 109 125 6,400 -387 Descending Albuquerque Center
Wed 06:05:31 PM 33.0497 -111.4753 North 119 137 6,000 -194 Descending Albuquerque Center
Wed 06:06:33 PM 33.0800 -111.4736 North 114 131 6,000  Level Albuquerque Center
Wed 06:07:35 PM 33.1092 -111.4700 North 108 124 6,000 -242 Level Albuquerque Center
Wed 06:08:37 PM 33.1419 -111.4697 360° North 114 131 5,500 -629 Descending Albuquerque Center
Wed 06:09:39 PM 33.1717 -111.5017 318° Northwest 118 136 4,700 -726 Descending Albuquerque Center
Wed 06:10:41 PM 33.1950 -111.5275 317° Northwest 114 131 4,000 -677 Descending Albuquerque Center
Wed 06:11:43 PM 33.2156 -111.5542 313° West 111 128 3,300 -484 Descending Albuquerque Center
Wed 06:12:45 PM 33.2342 -111.5761 315° West 96 110 3,000 -244 Descending Albuquerque Center
Wed 06:13:46 PM 33.2519 -111.5939 320° Northwest 85 98 2,800 -390 Descending Albuquerque Center
Wed 06:14:48 PM 33.2689 -111.6153 313° West 88 101 2,200 -532 Descending Albuquerque Center
Wed 06:15:50 PM 33.2889 -111.6386 316° Northwest 86 99 1,700 -484 Descending Albuquerque Center
Wed 06:18:00 PM 33.3078 -111.6555 323° Northwest  Level Estimated

Login

Don't have an account? Register now (free) for customized features, flight alerts, and more!